Time;durP1;ratioP1;P1;durP2;ratioP2;P2;SDS_P1;SDS_P2;PMS_P1;PMS_P2;Temp;Humidity;BMP_temperature;BMP_pressure;BME280_temperature;BME280_humidity;BME280_pressure;Samples;Min_cycle;Max_cycle;Signal;HPM_P1;HPM_P2
2022/03/28 00:01:28;;;;;;;22.58;4.50;;;;;;;7.54;76.93;102789.53;5076624;28;20028;-73
2022/03/28 00:03:54;;;;;;;22.80;4.05;;;;;;;7.57;76.75;102793.63;5094692;28;20356;-73
2022/03/28 00:06:19;;;;;;;29.17;4.18;;;;;;;7.55;76.86;102788.59;5094630;28;20066;-74
2022/03/28 00:08:44;;;;;;;25.38;4.18;;;;;;;7.46;76.82;102787.53;5094636;28;20020;-73
2022/03/28 00:11:10;;;;;;;26.65;4.28;;;;;;;7.17;77.97;102791.50;5094892;28;20024;-72
2022/03/28 00:13:36;;;;;;;23.20;3.63;;;;;;;7.12;78.99;102794.41;5094452;28;20032;-73
2022/03/28 00:16:02;;;;;;;19.75;4.15;;;;;;;7.07;78.84;102791.34;5076166;28;20024;-73
2022/03/28 00:18:27;;;;;;;20.95;3.70;;;;;;;7.12;79.05;102788.44;5094499;28;20413;-73
2022/03/28 00:20:54;;;;;;;27.58;4.22;;;;;;;7.10;78.57;102780.84;5076465;28;20032;-72
2022/03/28 00:23:20;;;;;;;23.75;4.07;;;;;;;7.20;78.77;102779.22;5076284;28;20028;-72
2022/03/28 00:25:46;;;;;;;17.83;4.07;;;;;;;7.17;77.63;102776.88;5094525;28;20052;-73
2022/03/28 00:28:12;;;;;;;26.88;4.53;;;;;;;6.97;78.82;102780.13;5094474;28;20043;-72
2022/03/28 00:30:38;;;;;;;21.40;4.28;;;;;;;6.97;79.45;102772.44;5076269;28;20080;-73
2022/03/28 00:33:04;;;;;;;28.27;4.57;;;;;;;7.06;78.69;102753.75;5094139;28;20119;-71
2022/03/28 00:35:30;;;;;;;22.20;3.83;;;;;;;7.08;78.58;102744.16;5094117;28;20020;-72
2022/03/28 00:37:55;;;;;;;27.15;4.10;;;;;;;7.16;78.04;102752.13;5094035;28;20031;-72
2022/03/28 00:40:22;;;;;;;18.83;4.13;;;;;;;7.18;78.08;102746.84;5075905;28;20024;-72
2022/03/28 00:42:50;;;;;;;18.88;3.92;;;;;;;7.15;77.80;102747.91;5075800;28;20059;-73
2022/03/28 00:45:16;;;;;;;23.45;4.47;;;;;;;6.88;78.53;102748.22;5075807;28;20024;-72
2022/03/28 00:47:42;;;;;;;23.75;4.63;;;;;;;6.80;79.10;102745.41;5093900;28;20030;-73
2022/03/28 00:50:09;;;;;;;19.45;4.20;;;;;;;6.79;79.44;102738.63;5093671;28;20079;-72
2022/03/28 00:52:35;;;;;;;18.08;3.88;;;;;;;6.72;79.18;102745.16;5093874;28;20433;-73
2022/03/28 00:55:01;;;;;;;24.60;5.07;;;;;;;6.69;80.03;102735.09;5075602;28;20024;-72
2022/03/28 00:57:29;;;;;;;16.92;3.75;;;;;;;6.75;79.57;102742.34;5093605;28;20016;-73
2022/03/28 00:59:55;;;;;;;23.33;3.88;;;;;;;6.81;79.08;102736.75;5092479;28;20471;-72
2022/03/28 01:02:20;;;;;;;22.15;3.92;;;;;;;6.83;79.02;102734.09;5092573;28;20024;-73
2022/03/28 01:04:45;;;;;;;20.60;3.90;;;;;;;6.71;79.31;102734.06;5073944;28;20375;-73
2022/03/28 01:07:12;;;;;;;25.38;3.80;;;;;;;6.68;79.53;102733.47;5075102;28;20102;-73
2022/03/28 01:09:37;;;;;;;23.38;5.00;;;;;;;6.64;79.64;102734.63;5075544;28;20020;-72
2022/03/28 01:12:04;;;;;;;17.42;4.32;;;;;;;6.74;79.69;102733.81;5075381;28;20032;-73
2022/03/28 01:14:30;;;;;;;18.95;4.65;;;;;;;6.71;79.90;102728.91;5093384;28;20164;-73
2022/03/28 01:19:39;;;;;;;19.40;4.30;;;;;;;6.58;79.92;102722.22;5093471;28;20038;-72
2022/03/28 01:22:05;;;;;;;20.58;4.25;;;;;;;6.57;80.13;102712.88;5075276;28;20390;-73
2022/03/28 01:24:31;;;;;;;19.38;4.78;;;;;;;6.62;79.65;102713.34;5075173;28;20032;-71
2022/03/28 01:26:57;;;;;;;25.95;4.72;;;;;;;6.57;79.76;102702.63;5092509;28;20027;-72
2022/03/28 01:29:22;;;;;;;20.48;4.30;;;;;;;6.60;79.40;102704.97;5093273;28;20032;-72
2022/03/28 01:31:47;;;;;;;18.23;3.67;;;;;;;6.44;80.42;102700.94;5075131;28;20146;-72
2022/03/28 01:34:20;;;;;;;21.33;4.30;;;;;;;6.50;79.91;102689.38;5075081;28;20020;-72
2022/03/28 01:36:47;;;;;;;21.00;4.22;;;;;;;6.40;79.99;102691.00;5091860;28;20024;-72
2022/03/28 01:39:17;;;;;;;19.65;4.57;;;;;;;6.31;80.44;102693.31;5093304;28;20027;-72
2022/03/28 01:41:43;;;;;;;26.45;4.90;;;;;;;6.30;80.85;102673.72;5092923;28;20032;-72
2022/03/28 01:44:09;;;;;;;18.70;4.97;;;;;;;6.34;80.85;102692.28;5098229;28;20059;-73
2022/03/28 01:46:44;;;;;;;25.80;5.28;;;;;;;6.27;81.27;102688.50;5081767;28;20059;-73
2022/03/28 01:49:11;;;;;;;16.58;4.20;;;;;;;6.30;80.86;102699.41;5099766;28;20031;-73
2022/03/28 01:51:36;;;;;;;17.42;4.32;;;;;;;6.31;80.82;102688.19;5059585;28;20041;-72
2022/03/28 01:54:02;;;;;;;28.98;4.88;;;;;;;6.19;80.62;102683.13;5059437;28;20027;-73
2022/03/28 01:56:28;;;;;;;19.08;4.95;;;;;;;6.09;81.22;102691.47;5059389;28;20376;-73
2022/03/28 01:58:54;;;;;;;18.75;4.90;;;;;;;6.07;81.38;102685.66;5058109;28;20024;-72
2022/03/28 02:01:20;;;;;;;23.45;4.85;;;;;;;6.07;81.10;102683.09;5058472;28;20059;-72
2022/03/28 02:03:45;;;;;;;23.70;5.07;;;;;;;6.04;81.44;102683.31;5059154;28;20384;-72
2022/03/28 02:06:11;;;;;;;18.00;5.05;;;;;;;5.83;81.65;102684.81;5058393;28;20369;-72
2022/03/28 02:08:36;;;;;;;20.17;5.30;;;;;;;5.82;82.08;102678.84;5058054;28;20061;-73
2022/03/28 02:11:01;;;;;;;16.33;4.75;;;;;;;5.82;82.57;102676.28;5058106;28;20542;-73
2022/03/28 02:13:27;;;;;;;21.42;4.68;;;;;;;5.84;82.11;102676.16;5059387;28;20025;-73
2022/03/28 02:15:52;;;;;;;16.40;4.88;;;;;;;5.84;81.98;102671.88;5059372;28;20017;-72
2022/03/28 02:18:17;;;;;;;22.50;6.05;;;;;;;5.77;82.73;102667.28;5059244;28;20078;-72
2022/03/28 02:20:43;;;;;;;17.95;5.13;;;;;;;5.76;82.24;102668.22;5059375;28;20028;-72
2022/03/28 02:23:08;;;;;;;20.83;4.72;;;;;;;5.73;82.05;102655.59;5059665;28;20024;-72
2022/03/28 02:25:37;;;;;;;26.02;5.38;;;;;;;5.68;82.42;102644.84;5057871;28;20032;-73
2022/03/28 02:28:03;;;;;;;21.65;5.65;;;;;;;5.71;82.58;102653.13;5059286;28;20151;-73
2022/03/28 02:30:28;;;;;;;20.25;5.30;;;;;;;5.62;83.12;102640.97;5059126;28;20498;-72
2022/03/28 02:32:54;;;;;;;20.10;5.13;;;;;;;5.72;82.34;102646.25;5057965;28;20025;-72
2022/03/28 02:35:19;;;;;;;19.30;5.00;;;;;;;5.58;82.44;102645.50;5059110;28;20041;-72
2022/03/28 02:37:47;;;;;;;18.45;5.03;;;;;;;5.56;82.79;102637.09;5057852;28;20371;-72
2022/03/28 02:40:12;;;;;;;15.52;5.10;;;;;;;5.40;83.15;102626.25;5059094;28;20024;-73
2022/03/28 02:42:37;;;;;;;19.25;5.00;;;;;;;5.46;83.05;102640.41;5059119;28;20100;-72
2022/03/28 02:45:03;;;;;;;15.98;5.25;;;;;;;5.41;83.94;102638.19;5059128;28;20135;-73
2022/03/28 02:47:29;;;;;;;15.70;5.32;;;;;;;5.39;83.28;102628.03;5059169;28;20384;-72
2022/03/28 02:49:54;;;;;;;15.82;5.45;;;;;;;5.34;83.19;102632.66;5067844;28;20048;-72
2022/03/28 02:52:21;;;;;;;18.05;5.57;;;;;;;5.32;83.46;102626.81;5099334;28;20063;-71
2022/03/28 02:54:46;;;;;;;15.43;5.40;;;;;;;5.25;83.72;102624.78;5078055;28;20027;-72
2022/03/28 02:57:11;;;;;;;17.02;5.22;;;;;;;5.36;84.23;102628.22;5077793;28;20395;-71
2022/03/28 02:59:37;;;;;;;16.33;4.93;;;;;;;5.32;84.59;102621.69;5077909;28;20043;-73
2022/03/28 03:02:02;;;;;;;12.93;5.00;;;;;;;5.34;83.70;102617.25;5077815;28;20368;-72
2022/03/28 03:04:29;;;;;;;16.38;5.25;;;;;;;5.33;83.87;102614.81;5077753;28;20036;-73
2022/03/28 03:06:54;;;;;;;15.73;5.32;;;;;;;5.41;83.91;102610.78;5077744;28;20046;-72
2022/03/28 03:09:20;;;;;;;16.63;5.20;;;;;;;5.39;82.78;102604.94;5077628;28;20093;-72
2022/03/28 03:11:45;;;;;;;16.10;5.20;;;;;;;5.28;83.29;102604.06;5095806;28;20031;-72
2022/03/28 03:14:10;;;;;;;15.95;5.38;;;;;;;5.27;84.04;102605.00;5095782;28;20024;-73
2022/03/28 03:16:36;;;;;;;17.65;5.47;;;;;;;5.33;83.92;102602.81;5095795;28;20383;-72
2022/03/28 03:19:01;;;;;;;12.48;5.05;;;;;;;5.17;83.14;102600.50;5095673;28;20028;-72
2022/03/28 03:21:26;;;;;;;11.20;4.70;;;;;;;5.17;84.19;102604.81;5095595;28;20024;-73
2022/03/28 03:23:51;;;;;;;18.13;5.60;;;;;;;5.19;84.20;102593.53;5077455;28;20112;-72
2022/03/28 03:26:17;;;;;;;13.48;5.13;;;;;;;5.13;84.43;102598.25;5077429;28;20203;-72
2022/03/28 03:28:42;;;;;;;10.70;4.75;;;;;;;5.11;84.18;102594.97;5095497;28;20031;-72
2022/03/28 03:31:07;;;;;;;14.20;5.50;;;;;;;5.04;84.17;102594.59;5077277;28;20471;-73
2022/03/28 03:33:33;;;;;;;17.20;5.20;;;;;;;4.92;84.88;102588.56;5077206;28;20114;-72
2022/03/28 03:36:00;;;;;;;18.10;5.18;;;;;;;4.91;84.69;102579.22;5095336;28;20490;-72
2022/03/28 03:38:26;;;;;;;14.77;5.97;;;;;;;5.10;84.32;102585.66;5077071;28;20521;-72
2022/03/28 03:40:52;;;;;;;12.73;5.70;;;;;;;5.08;84.81;102585.75;5095225;28;20107;-72
2022/03/28 03:43:17;;;;;;;13.07;5.50;;;;;;;4.90;84.80;102587.03;5095171;28;20020;-72
2022/03/28 03:45:42;;;;;;;15.27;5.22;;;;;;;4.87;84.84;102589.81;5095174;28;20534;-72
2022/03/28 03:48:08;;;;;;;12.73;5.85;;;;;;;4.94;84.71;102591.00;5095160;28;20016;-72
2022/03/28 03:50:33;;;;;;;15.70;6.03;;;;;;;4.98;84.82;102593.28;5094844;28;20087;-73
2022/03/28 03:52:58;;;;;;;12.98;6.18;;;;;;;4.94;84.81;102586.72;5076853;28;20387;-72
2022/03/28 03:55:23;;;;;;;13.40;6.00;;;;;;;4.12;87.22;102572.63;5076851;28;20028;-73
2022/03/28 03:57:49;;;;;;;14.32;6.13;;;;;;;4.01;89.08;102581.00;5076626;28;20418;-71
2022/03/28 04:00:15;;;;;;;14.00;6.85;;;;;;;4.02;90.50;102587.75;5076941;28;20074;-73
2022/03/28 04:02:41;;;;;;;23.08;6.65;;;;;;;3.99;90.20;102587.94;5076587;28;20073;-73
2022/03/28 04:05:06;;;;;;;22.10;7.03;;;;;;;3.93;90.38;102585.78;5094638;28;20421;-72
2022/03/28 04:07:32;;;;;;;13.07;6.68;;;;;;;4.14;90.31;102582.75;5076303;28;20020;-72
2022/03/28 04:10:01;;;;;;;14.75;7.22;;;;;;;4.41;90.49;102582.69;5094830;28;20027;-74
2022/03/28 04:12:26;;;;;;;24.55;7.50;;;;;;;4.42;89.41;102579.19;5094551;28;20035;-74
2022/03/28 04:14:53;;;;;;;20.83;7.22;;;;;;;4.53;89.54;102572.41;5094487;28;20470;-73
2022/03/28 04:17:18;;;;;;;27.05;7.22;;;;;;;4.57;89.11;102567.91;5094593;28;20459;-73
2022/03/28 04:19:44;;;;;;;22.60;7.88;;;;;;;4.73;89.78;102575.38;5094342;28;20186;-72
2022/03/28 04:22:09;;;;;;;16.60;7.80;;;;;;;4.72;89.35;102574.56;5094398;28;20028;-74
2022/03/28 04:24:34;;;;;;;16.48;8.02;;;;;;;4.84;89.12;102580.59;5094197;28;20024;-75
2022/03/28 04:27:00;;;;;;;34.20;9.27;;;;;;;4.49;88.71;102567.63;5094213;28;20089;-74
2022/03/28 04:29:25;;;;;;;24.90;7.90;;;;;;;4.66;90.68;102563.91;5075996;28;20032;-73
2022/03/28 04:31:50;;;;;;;26.20;7.85;;;;;;;4.51;90.09;102556.34;5094191;28;20475;-73
2022/03/28 04:34:16;;;;;;;18.95;7.95;;;;;;;4.42;91.41;102556.97;5094064;28;20051;-73
2022/03/28 04:36:41;;;;;;;18.48;8.15;;;;;;;4.60;91.45;102554.06;5075836;28;20081;-72
2022/03/28 04:39:06;;;;;;;15.20;8.35;;;;;;;4.81;90.25;102551.81;5094351;28;20020;-73
2022/03/28 04:41:32;;;;;;;23.83;7.55;;;;;;;4.56;90.00;102547.53;5093029;28;20024;-71
2022/03/28 04:43:57;;;;;;;23.20;9.20;;;;;;;4.46;91.05;102542.19;5093747;28;20107;-75
2022/03/28 04:46:23;;;;;;;28.45;8.50;;;;;;;4.66;90.36;102545.97;5075689;28;20020;-72
2022/03/28 04:48:49;;;;;;;17.05;7.72;;;;;;;4.83;90.18;102537.94;5093218;28;20030;-73
2022/03/28 04:51:15;;;;;;;18.13;7.53;;;;;;;5.01;89.56;102558.13;5093866;28;20475;-73
2022/03/28 04:53:40;;;;;;;15.50;7.95;;;;;;;5.02;89.21;102557.19;5075455;28;20065;-73
2022/03/28 04:56:05;;;;;;;25.80;7.68;;;;;;;5.07;88.28;102558.50;5075525;28;20105;-73
2022/03/28 04:58:31;;;;;;;62.78;7.28;;;;;;;4.42;90.51;102551.03;5093904;28;20035;-73
2022/03/28 05:00:56;;;;;;;28.17;7.35;;;;;;;4.57;92.47;102551.72;5075567;28;20024;-74
2022/03/28 05:03:21;;;;;;;26.40;7.53;;;;;;;4.70;91.71;102540.56;5093900;28;20383;-74
2022/03/28 05:05:46;;;;;;;15.98;7.07;;;;;;;4.95;90.85;102532.00;5093674;28;20103;-71
2022/03/28 05:08:12;;;;;;;21.23;6.88;;;;;;;4.91;90.73;102533.13;5093563;28;20022;-72
2022/03/28 05:10:37;;;;;;;26.17;7.65;;;;;;;5.07;90.94;102532.06;5093574;28;20032;-73
2022/03/28 05:13:02;;;;;;;28.63;7.80;;;;;;;5.15;90.13;102542.56;5093608;28;20023;-73
2022/03/28 05:15:28;;;;;;;80.15;7.65;;;;;;;4.80;90.45;102543.28;5093562;28;20547;-73
2022/03/28 05:17:53;;;;;;;44.50;7.95;;;;;;;4.52;92.02;102529.81;5074374;28;20059;-73
2022/03/28 05:20:19;;;;;;;69.72;8.32;;;;;;;4.66;91.75;102534.00;5093636;28;20459;-74
2022/03/28 05:22:45;;;;;;;20.40;7.53;;;;;;;4.78;92.09;102521.28;5075145;28;20024;-73
2022/03/28 05:25:11;;;;;;;68.63;8.27;;;;;;;4.28;93.84;102532.28;5092653;28;20532;-72
2022/03/28 05:27:49;;;;;;;112.93;8.35;;;;;;;4.11;93.74;102524.09;5076000;28;20024;-73
2022/03/28 05:30:19;;;;;;;73.28;8.15;;;;;;;4.37;93.57;102542.84;5094327;28;20031;-72
2022/03/28 05:32:44;;;;;;;110.18;9.27;;;;;;;4.17;94.66;102539.88;5093735;28;20479;-72
2022/03/28 05:35:10;;;;;;;29.02;7.57;;;;;;;4.06;95.28;102537.22;5074730;28;20077;-72
2022/03/28 05:37:37;;;;;;;28.38;8.50;;;;;;;4.59;95.40;102540.47;5075142;28;20391;-72
2022/03/28 05:40:04;;;;;;;20.95;8.45;;;;;;;5.05;93.38;102556.97;5074139;28;20405;-72
2022/03/28 05:42:29;;;;;;;31.00;8.38;;;;;;;5.10;91.38;102560.84;5074811;28;20020;-74
2022/03/28 05:44:54;;;;;;;46.05;8.15;;;;;;;5.14;90.70;102559.69;5075034;28;20360;-74
2022/03/28 05:47:20;;;;;;;20.27;7.78;;;;;;;5.10;91.43;102557.47;5074856;28;20020;-73
2022/03/28 05:49:45;;;;;;;22.00;7.90;;;;;;;5.08;91.32;102549.88;5074828;28;20105;-75
2022/03/28 05:52:10;;;;;;;38.97;8.52;;;;;;;5.14;90.56;102548.63;5074980;28;20031;-73
2022/03/28 05:54:36;;;;;;;25.83;9.10;;;;;;;4.70;92.22;102529.50;5074920;28;20028;-72
2022/03/28 05:57:01;;;;;;;55.50;8.48;;;;;;;4.86;92.74;102524.97;5075637;28;20031;-73
2022/03/28 05:59:27;;;;;;;39.28;8.15;;;;;;;5.22;92.40;102519.91;5073951;28;20031;-73
2022/03/28 06:01:53;;;;;;;27.92;8.15;;;;;;;5.37;92.09;102516.25;5074055;28;20020;-73
2022/03/28 06:04:18;;;;;;;25.98;8.95;;;;;;;5.55;90.82;102506.41;5091367;28;20441;-73
2022/03/28 06:06:44;;;;;;;28.50;7.47;;;;;;;5.36;89.81;102512.06;5090825;28;20016;-73
2022/03/28 06:09:10;;;;;;;20.23;7.60;;;;;;;5.63;90.84;102504.91;5091628;28;20077;-72
2022/03/28 06:11:35;;;;;;;24.42;7.15;;;;;;;5.77;89.70;102501.34;5073381;28;20020;-72
2022/03/28 06:14:01;;;;;;;18.77;6.78;;;;;;;5.70;88.55;102496.75;5074103;28;20035;-75
2022/03/28 06:16:27;;;;;;;42.50;7.10;;;;;;;5.06;91.12;102490.22;5074337;28;20017;-74
2022/03/28 06:18:53;;;;;;;35.05;6.50;;;;;;;5.22;91.26;102497.66;5092708;28;20032;-74
2022/03/28 06:21:18;;;;;;;38.40;6.20;;;;;;;5.35;90.65;102500.13;5092824;28;20024;-74
2022/03/28 06:23:44;;;;;;;21.30;6.03;;;;;;;5.51;90.89;102489.59;5092747;28;20116;-72
2022/03/28 06:26:12;;;;;;;20.83;6.15;;;;;;;5.61;90.10;102483.69;5074117;28;20067;-72
2022/03/28 06:28:39;;;;;;;12.93;6.28;;;;;;;5.82;89.70;102481.28;5074419;28;20016;-73
2022/03/28 06:31:08;;;;;;;29.73;6.18;;;;;;;5.58;89.76;102483.94;5079870;28;20024;-74
2022/03/28 06:33:34;;;;;;;33.83;6.53;;;;;;;5.58;89.36;102483.94;5080226;28;20069;-71
2022/03/28 06:36:00;;;;;;;12.77;5.63;;;;;;;5.84;89.27;102492.28;5080635;28;20020;-74
2022/03/28 06:38:25;;;;;;;14.68;6.43;;;;;;;5.79;89.17;102503.81;5096835;28;20035;-72
2022/03/28 06:40:51;;;;;;;30.38;7.47;;;;;;;5.41;89.66;102509.97;5096782;28;20016;-73
2022/03/28 06:43:20;;;;;;;11.85;6.18;;;;;;;5.52;91.39;102506.63;5077974;28;20024;-72
2022/03/28 06:45:46;;;;;;;16.38;6.13;;;;;;;5.71;89.74;102506.09;5097026;28;20051;-73
2022/03/28 06:48:11;;;;;;;30.85;6.97;;;;;;;5.64;89.66;102510.88;5078312;28;20475;-72
2022/03/28 06:50:37;;;;;;;33.50;5.95;;;;;;;5.69;88.93;102513.09;5097918;28;20039;-74
2022/03/28 06:53:03;;;;;;;72.35;6.95;;;;;;;5.33;89.59;102523.34;5080090;28;20417;-73
2022/03/28 06:55:28;;;;;;;30.50;5.80;;;;;;;5.54;89.50;102505.59;5097823;28;20035;-74
2022/03/28 06:57:55;;;;;;;13.90;5.70;;;;;;;5.61;90.48;102508.50;5078857;28;20052;-73
2022/03/28 07:00:20;;;;;;;15.57;5.85;;;;;;;5.96;89.34;102508.53;5097318;28;20026;-73
2022/03/28 07:02:46;;;;;;;17.50;5.90;;;;;;;6.01;88.24;102508.16;5095266;28;20024;-72
2022/03/28 07:05:11;;;;;;;18.23;6.53;;;;;;;6.03;87.83;102501.19;5077463;28;20111;-73
2022/03/28 07:07:56;;;;;;;19.38;5.65;;;;;;;6.02;88.45;102491.84;5077516;28;20028;-73
2022/03/28 07:10:22;;;;;;;13.93;5.95;;;;;;;6.14;88.35;102497.81;5094439;28;20102;-71
2022/03/28 07:12:47;;;;;;;12.85;5.35;;;;;;;6.20;88.76;102492.22;5095592;28;20067;-72
2022/03/28 07:15:13;;;;;;;19.38;6.22;;;;;;;6.05;89.72;102497.56;5077535;28;20031;-73
2022/03/28 07:17:54;;;;;;;15.15;5.50;;;;;;;6.05;87.58;102484.75;5095465;28;20027;-72
2022/03/28 07:20:27;;;;;;;14.73;5.50;;;;;;;6.09;88.60;102482.75;5095420;28;20035;-72
2022/03/28 07:22:54;;;;;;;15.43;6.43;;;;;;;6.00;89.64;102481.69;5094358;28;20035;-72
2022/03/28 07:25:21;;;;;;;17.63;5.70;;;;;;;6.43;88.07;102483.56;5095446;28;20028;-73
2022/03/28 07:27:47;;;;;;;17.50;5.30;;;;;;;6.34;87.86;102474.00;5077195;28;20135;-73
2022/03/28 07:30:14;;;;;;;11.40;5.63;;;;;;;6.47;88.02;102477.28;5077366;28;20020;-73
2022/03/28 07:32:39;;;;;;;33.67;5.57;;;;;;;6.21;87.36;102468.97;5095594;28;20417;-73
2022/03/28 07:35:05;;;;;;;28.00;5.68;;;;;;;5.80;89.14;102469.50;5077597;28;20081;-72
2022/03/28 07:37:32;;;;;;;13.13;5.57;;;;;;;5.81;91.02;102464.28;5095051;28;20463;-72
2022/03/28 07:39:58;;;;;;;38.30;5.45;;;;;;;5.35;90.91;102467.66;5094899;28;20103;-72
2022/03/28 07:42:23;;;;;;;13.52;6.47;;;;;;;6.15;91.32;102461.75;5076763;28;20105;-73
2022/03/28 07:44:49;;;;;;;18.55;5.65;;;;;;;6.72;87.42;102465.91;5095030;28;20024;-72
2022/03/28 07:47:14;;;;;;;12.20;5.30;;;;;;;6.73;85.27;102466.72;5094902;28;20056;-73
2022/03/28 07:49:40;;;;;;;11.13;5.13;;;;;;;6.84;85.54;102469.25;5094652;28;20036;-72
2022/03/28 07:52:07;;;;;;;12.23;5.05;;;;;;;6.67;85.76;102483.41;5095293;28;20066;-72
2022/03/28 07:54:34;;;;;;;13.27;5.13;;;;;;;6.55;86.07;102477.47;5076130;28;20472;-72
2022/03/28 07:56:59;;;;;;;10.90;5.20;;;;;;;6.41;86.69;102479.47;5093674;28;20024;-72
2022/03/28 07:59:25;;;;;;;15.25;5.20;;;;;;;6.14;86.89;102472.97;5093686;28;20028;-71
2022/03/28 08:01:51;;;;;;;11.13;5.53;;;;;;;6.26;88.17;102476.34;5094097;28;20042;-72
2022/03/28 08:04:17;;;;;;;11.90;5.07;;;;;;;6.56;86.74;102473.19;5094797;28;20035;-73
2022/03/28 08:06:42;;;;;;;12.20;4.97;;;;;;;6.28;87.35;102464.22;5094632;28;20024;-73
2022/03/28 08:09:08;;;;;;;14.30;5.40;;;;;;;6.59;85.88;102454.13;5076518;28;20471;-73
2022/03/28 08:11:33;;;;;;;10.75;4.75;;;;;;;6.86;85.35;102466.56;5094560;28;20503;-73
2022/03/28 08:13:58;;;;;;;12.93;5.18;;;;;;;6.68;85.93;102456.00;5076410;28;20475;-73
2022/03/28 08:16:23;;;;;;;28.52;5.35;;;;;;;6.41;86.96;102462.31;5094373;28;20019;-73
2022/03/28 08:18:49;;;;;;;23.33;5.20;;;;;;;6.14;87.98;102469.56;5076215;28;20035;-74
2022/03/28 08:21:14;;;;;;;68.30;6.15;;;;;;;6.13;87.99;102466.19;5075408;28;20032;-73
2022/03/28 08:23:39;;;;;;;12.43;5.75;;;;;;;6.73;87.80;102461.56;5076267;28;20421;-73
2022/03/28 08:26:04;;;;;;;12.98;5.20;;;;;;;6.92;85.32;102454.03;5076071;28;20016;-73
2022/03/28 08:28:31;;;;;;;8.15;5.03;;;;;;;7.10;84.80;102456.09;5094096;28;20024;-73
2022/03/28 08:30:57;;;;;;;10.73;5.20;;;;;;;7.11;85.17;102462.88;5094178;28;20419;-73
2022/03/28 08:33:22;;;;;;;12.82;5.10;;;;;;;7.27;84.16;102457.31;5094126;28;20024;-72
2022/03/28 08:35:48;;;;;;;15.90;4.40;;;;;;;7.47;82.25;102453.94;5094305;28;20024;-73
2022/03/28 08:38:13;;;;;;;10.35;4.38;;;;;;;7.46;82.16;102450.53;5075860;28;20023;-72
2022/03/28 08:40:42;;;;;;;9.30;4.80;;;;;;;7.10;82.68;102445.81;5094762;28;20032;-72
2022/03/28 08:43:07;;;;;;;18.77;5.60;;;;;;;7.43;81.55;102452.56;5075966;28;20056;-72
2022/03/28 08:45:37;;;;;;;7.70;4.25;;;;;;;7.87;82.34;102450.63;5094150;28;20071;-72
2022/03/28 08:48:05;;;;;;;10.27;4.63;;;;;;;8.23;79.42;102451.03;5094341;28;20052;-71
2022/03/28 08:50:31;;;;;;;15.10;4.60;;;;;;;8.29;80.53;102445.41;5075764;28;20127;-72
2022/03/28 08:52:56;;;;;;;12.10;5.05;;;;;;;8.41;78.89;102451.28;5092743;28;20056;-73
2022/03/28 08:55:22;;;;;;;9.55;4.70;;;;;;;8.82;78.83;102445.13;5093634;28;20020;-72
2022/03/28 08:57:48;;;;;;;11.05;5.13;;;;;;;8.49;77.29;102441.16;5093571;28;20020;-73
2022/03/28 09:00:14;;;;;;;11.13;4.88;;;;;;;8.66;78.25;102442.22;5093655;28;20076;-73
2022/03/28 09:02:47;;;;;;;9.55;4.47;;;;;;;8.70;77.92;102454.72;5093586;28;20122;-74
2022/03/28 09:05:14;;;;;;;10.70;4.65;;;;;;;8.81;77.94;102452.03;5075474;28;20024;-73
2022/03/28 09:07:40;;;;;;;10.13;4.32;;;;;;;8.87;77.50;102445.53;5093543;28;20429;-73
2022/03/28 09:10:17;;;;;;;16.23;4.72;;;;;;;8.70;76.93;102441.03;5093513;28;20467;-73
2022/03/28 09:13:04;;;;;;;11.45;5.20;;;;;;;8.07;80.77;102448.97;5093468;28;20382;-72
2022/03/28 09:15:55;;;;;;;11.15;4.90;;;;;;;7.94;79.80;102450.94;5075251;28;20022;-72
2022/03/28 09:18:28;;;;;;;11.18;4.90;;;;;;;8.74;77.02;102447.53;5075195;28;20502;-73
2022/03/28 09:20:54;;;;;;;11.48;4.78;;;;;;;9.03;75.78;102432.91;5075295;28;20479;-72
2022/03/28 09:23:39;;;;;;;10.23;5.05;;;;;;;9.14;75.41;102426.78;5075321;28;20402;-72
2022/03/28 09:26:07;;;;;;;9.48;4.40;;;;;;;9.07;75.65;102409.44;5093283;28;20032;-73
2022/03/28 09:28:48;;;;;;;11.30;4.35;;;;;;;9.81;73.55;102426.78;5074961;28;20379;-72
2022/03/28 09:31:18;;;;;;;13.38;4.60;;;;;;;10.20;71.63;102418.88;5092869;28;20036;-72
2022/03/28 09:33:56;;;;;;;9.82;4.93;;;;;;;10.22;71.15;102417.78;5093163;28;20498;-72
2022/03/28 09:36:37;;;;;;;11.25;5.07;;;;;;;10.33;70.94;102424.56;5093217;28;20032;-72
2022/03/28 09:39:04;;;;;;;11.95;5.47;;;;;;;10.60;70.10;102410.75;5093227;28;20054;-73
2022/03/28 09:41:30;;;;;;;14.05;5.75;;;;;;;10.18;70.19;102421.59;5092963;28;20030;-73
2022/03/28 09:43:56;;;;;;;9.63;5.05;;;;;;;10.32;70.28;102412.56;5093073;28;20028;-72
2022/03/28 09:46:28;;;;;;;11.45;4.93;;;;;;;11.02;70.08;102416.16;5092970;28;20024;-73
2022/03/28 09:48:57;;;;;;;13.75;5.70;;;;;;;11.11;67.13;102411.03;5093034;28;20031;-73
2022/03/28 09:51:26;;;;;;;9.90;5.10;;;;;;;11.82;65.22;102407.41;5092694;28;20088;-72
2022/03/28 09:53:51;;;;;;;11.60;5.32;;;;;;;11.93;66.16;102407.16;5074686;28;20059;-73
2022/03/28 09:56:16;;;;;;;15.23;5.38;;;;;;;11.71;66.22;102404.13;5074777;28;20024;-73
2022/03/28 09:58:48;;;;;;;11.55;5.28;;;;;;;13.28;60.89;102399.06;5075005;28;20638;-67
2022/03/28 10:01:26;;;;;;;14.02;5.38;;;;;;;13.67;60.31;102392.31;5076087;28;20028;-67
2022/03/28 10:03:54;;;;;;;11.48;5.78;;;;;;;13.13;61.11;102395.50;5076448;28;20028;-68
2022/03/28 10:06:21;;;;;;;10.98;5.78;;;;;;;12.91;61.64;102398.75;5096899;28;20024;-69
2022/03/28 10:08:46;;;;;;;10.27;5.10;;;;;;;13.22;60.66;102389.31;5096632;28;20104;-67
2022/03/28 10:11:13;;;;;;;11.70;6.07;;;;;;;13.42;60.57;102379.41;5096694;28;20102;-69
2022/03/28 10:13:39;;;;;;;11.63;5.47;;;;;;;13.95;58.57;102382.28;5097163;28;20515;-68
2022/03/28 10:16:06;;;;;;;10.95;5.18;;;;;;;13.52;59.61;102379.19;5078502;28;20024;-68
2022/03/28 10:18:33;;;;;;;12.93;5.85;;;;;;;13.29;60.31;102379.94;5078384;28;20451;-67
2022/03/28 10:21:02;;;;;;;10.68;5.70;;;;;;;13.92;58.26;102370.44;5078321;28;20525;-68
2022/03/28 10:23:42;;;;;;;13.30;5.97;;;;;;;14.06;58.83;102362.91;5096452;28;20073;-67
2022/03/28 10:26:09;;;;;;;12.32;6.00;;;;;;;14.89;58.04;102365.56;5078415;28;20491;-68
2022/03/28 10:28:35;;;;;;;11.25;5.82;;;;;;;14.28;57.50;102371.72;5096466;28;20066;-69
2022/03/28 10:31:17;;;;;;;11.98;5.70;;;;;;;14.42;56.81;102365.78;5096476;28;20027;-68
2022/03/28 10:33:46;;;;;;;11.63;5.82;;;;;;;14.43;57.22;102352.56;5078170;28;20131;-68
2022/03/28 10:36:27;;;;;;;12.70;5.40;;;;;;;14.84;58.33;102348.84;5061403;28;20469;-67
2022/03/28 10:38:53;;;;;;;16.05;6.00;;;;;;;15.00;55.95;102340.09;5077880;28;20052;-69
2022/03/28 10:41:20;;;;;;;11.50;5.47;;;;;;;15.53;54.14;102352.03;5077480;28;20047;-69
2022/03/28 10:43:47;;;;;;;14.93;5.85;;;;;;;15.62;53.68;102349.31;5095873;28;20099;-68
2022/03/28 10:46:14;;;;;;;12.35;6.07;;;;;;;15.44;53.95;102349.72;5077533;28;20446;-69
2022/03/28 10:49:09;;;;;;;13.18;5.65;;;;;;;16.50;52.42;102350.88;5096029;28;20107;-68
2022/03/28 10:51:35;;;;;;;16.15;5.85;;;;;;;17.00;51.66;102340.41;5074557;28;20047;-69
2022/03/28 10:54:05;;;;;;;17.83;6.25;;;;;;;16.54;52.43;102343.47;5077576;28;20024;-69
2022/03/28 10:56:43;;;;;;;14.57;5.85;;;;;;;15.65;53.24;102341.13;5077918;28;20037;-69
2022/03/28 10:59:11;;;;;;;10.90;5.68;;;;;;;16.18;52.86;102332.13;5077723;28;20036;-69
2022/03/28 11:01:36;;;;;;;13.07;5.40;;;;;;;14.66;55.31;102333.56;5061161;28;20062;-67
2022/03/28 11:04:24;;;;;;;11.75;6.35;;;;;;;15.23;56.19;102329.59;5096570;28;20023;-69
2022/03/28 11:07:06;;;;;;;13.75;6.18;;;;;;;15.94;54.71;102327.25;5078368;28;20111;-69
2022/03/28 11:09:50;;;;;;;13.90;5.82;;;;;;;16.77;51.33;102315.38;5095995;28;20075;-69
2022/03/28 11:12:21;;;;;;;14.02;5.60;;;;;;;16.15;52.43;102318.66;5095976;28;20051;-69
2022/03/28 11:14:49;;;;;;;9.77;5.68;;;;;;;16.67;51.47;102317.50;5095469;28;20095;-68
2022/03/28 11:17:18;;;;;;;12.38;5.80;;;;;;;16.91;50.82;102305.81;5094874;28;20463;-69
2022/03/28 11:19:57;;;;;;;12.32;5.97;;;;;;;16.77;51.25;102306.72;5095465;28;20024;-68
2022/03/28 11:22:54;;;;;;;10.63;5.57;;;;;;;17.02;50.95;102300.06;5095601;28;20055;-70
2022/03/28 11:25:29;;;;;;;11.15;6.03;;;;;;;16.67;50.69;102299.22;5077013;28;20040;-68
2022/03/28 11:28:10;;;;;;;10.93;5.90;;;;;;;16.73;51.90;102297.66;5095519;28;20027;-68